Time;durP1;ratioP1;P1;durP2;ratioP2;P2;SDS_P1;SDS_P2;PMS_P1;PMS_P2;Temp;Humidity;BMP_temperature;BMP_pressure;BME280_temperature;BME280_humidity;BME280_pressure;Samples;Min_cycle;Max_cycle;Signal;HPM_P1;HPM_P2
2021/07/04 00:00:51;;;;;;;22.85;11.85;;;;;;;16.65;76.84;98476.84;125668;1094;102952;-68
2021/07/04 00:03:26;;;;;;;23.00;11.67;;;;;;;16.64;76.68;98477.84;125677;1096;102943;-69
2021/07/04 00:05:56;;;;;;;23.87;11.63;;;;;;;16.65;76.96;98478.70;125664;1095;103087;-69
2021/07/04 00:08:26;;;;;;;23.77;12.23;;;;;;;16.65;76.64;98474.16;125613;1096;103041;-69
2021/07/04 00:11:01;;;;;;;24.20;12.50;;;;;;;16.66;76.69;98475.02;125674;1095;103416;-69
2021/07/04 00:13:32;;;;;;;24.67;12.33;;;;;;;16.64;76.69;98477.02;125686;1092;102917;-69
2021/07/04 00:16:03;;;;;;;24.60;13.07;;;;;;;16.64;76.92;98477.02;125675;1093;102935;-69
2021/07/04 00:18:34;;;;;;;22.37;12.10;;;;;;;16.66;76.96;98483.07;125632;1093;103526;-68
2021/07/04 00:21:09;;;;;;;30.53;12.13;;;;;;;16.65;76.68;98476.84;125640;1093;103004;-68
2021/07/04 00:23:39;;;;;;;22.10;11.97;;;;;;;16.66;76.90;98475.84;125683;1092;103038;-68
2021/07/04 00:26:11;;;;;;;23.37;12.30;;;;;;;16.67;77.04;98479.38;125650;1093;102972;-69
2021/07/04 00:28:41;;;;;;;25.37;12.40;;;;;;;16.66;76.76;98473.16;125698;1093;103386;-69
2021/07/04 00:31:11;;;;;;;26.97;13.83;;;;;;;16.66;76.87;98473.16;125703;1092;102910;-69
2021/07/04 00:33:40;;;;;;;22.80;12.73;;;;;;;16.66;77.02;98475.02;125606;1093;103028;-68
2021/07/04 00:36:10;;;;;;;26.60;13.17;;;;;;;16.65;77.06;98479.53;125621;1092;103384;-67
2021/07/04 00:38:38;;;;;;;26.77;13.73;;;;;;;16.65;76.98;98468.79;126875;1096;100851;-69
2021/07/04 00:41:08;;;;;;;23.13;11.50;;;;;;;16.64;76.70;98464.42;126304;1094;102908;-67
2021/07/04 00:43:36;;;;;;;23.43;12.63;;;;;;;16.65;76.90;98458.05;125586;1094;103011;-68
2021/07/04 00:46:05;;;;;;;24.73;12.30;;;;;;;16.66;76.89;98459.73;125549;1094;103136;-68
2021/07/04 00:48:35;;;;;;;24.50;11.83;;;;;;;16.67;77.08;98449.84;125628;1095;102937;-69
2021/07/04 00:51:05;;;;;;;25.23;12.67;;;;;;;16.68;76.73;98451.52;125596;1095;102993;-69
2021/07/04 00:53:34;;;;;;;22.90;12.50;;;;;;;16.69;77.15;98441.61;125625;1095;102913;-68
2021/07/04 00:56:04;;;;;;;24.63;12.00;;;;;;;16.69;77.12;98446.98;125685;1095;103183;-69
2021/07/04 00:58:33;;;;;;;24.53;12.27;;;;;;;16.71;76.95;98442.28;125579;1094;102896;-69
2021/07/04 01:01:03;;;;;;;23.53;10.73;;;;;;;16.70;77.02;98445.97;125717;1093;103004;-69
2021/07/04 01:03:31;;;;;;;22.17;11.50;;;;;;;16.67;77.06;98444.47;125642;1093;103560;-69
2021/07/04 01:05:59;;;;;;;23.03;11.77;;;;;;;16.66;77.03;98437.42;125637;1092;102991;-68
2021/07/04 01:08:28;;;;;;;23.60;10.87;;;;;;;16.64;77.09;98440.26;125644;1092;103003;-69
2021/07/04 01:10:57;;;;;;;19.67;10.50;;;;;;;16.65;76.84;98441.94;126339;1093;103024;-69
2021/07/04 01:13:25;;;;;;;24.53;12.20;;;;;;;16.65;76.79;98447.31;125664;1093;102998;-68
2021/07/04 01:15:56;;;;;;;21.65;10.35;;;;;;;16.65;77.20;98449.17;125643;1093;102935;-68
2021/07/04 01:18:26;;;;;;;23.03;12.47;;;;;;;16.66;76.84;98442.80;125698;1093;102932;-68
2021/07/04 01:20:58;;;;;;;22.43;11.87;;;;;;;16.65;77.00;98438.43;125648;1093;102991;-68
2021/07/04 01:23:30;;;;;;;22.27;10.73;;;;;;;16.65;77.23;98446.48;125633;1092;102914;-68
2021/07/04 01:25:58;;;;;;;22.90;11.40;;;;;;;16.65;76.92;98441.94;125656;1092;103023;-69
2021/07/04 01:28:26;;;;;;;28.13;11.70;;;;;;;16.65;77.02;98441.94;125671;1093;102930;-69
2021/07/04 01:30:58;;;;;;;24.33;11.23;;;;;;;16.65;76.88;98441.94;125656;1093;102916;-68
2021/07/04 01:33:30;;;;;;;21.85;10.48;;;;;;;16.66;77.04;98450.84;125618;1093;103077;-69
2021/07/04 01:35:58;;;;;;;23.23;11.07;;;;;;;16.64;77.12;98459.05;125592;1096;103087;-69
2021/07/04 01:38:26;;;;;;;22.50;12.07;;;;;;;16.65;77.12;98458.05;125678;1093;103030;-69
2021/07/04 01:40:57;;;;;;;22.63;11.33;;;;;;;16.65;76.97;98449.99;125698;1093;102938;-68
2021/07/04 01:43:26;;;;;;;27.40;11.23;;;;;;;16.66;77.06;98445.48;125647;1092;103090;-67
2021/07/04 01:45:54;;;;;;;26.67;10.93;;;;;;;16.66;76.96;98448.16;125610;1093;103110;-68
2021/07/04 01:48:24;;;;;;;27.97;13.47;;;;;;;16.65;77.07;98447.31;125629;1092;103090;-68
2021/07/04 01:50:52;;;;;;;25.33;12.40;;;;;;;16.64;77.37;98444.80;125666;1095;102920;-69
2021/07/04 01:53:24;;;;;;;25.70;12.43;;;;;;;16.63;76.94;98454.69;125637;1093;103457;-69
2021/07/04 01:55:52;;;;;;;25.07;12.40;;;;;;;16.63;76.99;98453.86;125679;1092;102942;-73
2021/07/04 01:58:22;;;;;;;25.37;12.90;;;;;;;16.61;76.96;98445.95;125655;1093;103068;-68
2021/07/04 02:00:50;;;;;;;23.17;11.80;;;;;;;16.59;76.97;98449.83;125640;1093;103364;-67
2021/07/04 02:03:21;;;;;;;24.20;11.53;;;;;;;16.60;77.41;98462.25;125624;1094;103081;-68
2021/07/04 02:05:51;;;;;;;22.43;10.23;;;;;;;16.56;77.18;98458.21;125678;1093;102935;-68
2021/07/04 02:08:19;;;;;;;25.47;11.63;;;;;;;16.54;77.04;98454.84;125718;1093;102968;-69
2021/07/04 02:10:50;;;;;;;22.43;11.40;;;;;;;16.54;77.41;98457.53;125669;1091;103007;-69
2021/07/04 02:13:20;;;;;;;22.20;11.90;;;;;;;16.55;77.13;98453.84;125616;1093;103006;-69
2021/07/04 02:15:48;;;;;;;22.13;11.93;;;;;;;16.56;77.15;98459.03;125679;1093;102966;-69
2021/07/04 02:18:19;;;;;;;21.33;11.13;;;;;;;16.56;77.08;98456.34;125588;1095;103013;-68
2021/07/04 02:20:54;;;;;;;22.00;10.60;;;;;;;16.56;77.11;98460.89;125648;1095;102937;-68
2021/07/04 02:23:26;;;;;;;18.47;9.50;;;;;;;16.55;77.26;98457.35;125669;1095;103024;-69
2021/07/04 02:25:56;;;;;;;23.53;10.90;;;;;;;16.54;77.11;98452.98;125646;1095;103015;-68
2021/07/04 02:28:30;;;;;;;21.80;10.30;;;;;;;16.55;77.20;98451.16;125626;1095;103384;-69
2021/07/04 02:31:00;;;;;;;18.97;9.90;;;;;;;16.55;77.05;98451.16;125668;1095;102998;-69
2021/07/04 02:33:30;;;;;;;21.00;10.47;;;;;;;16.54;77.09;98452.98;125648;1094;102947;-69
2021/07/04 02:36:00;;;;;;;20.97;10.27;;;;;;;16.54;77.31;98454.84;125668;1095;103022;-69
2021/07/04 02:38:28;;;;;;;22.13;11.47;;;;;;;16.54;77.08;98457.53;125635;1095;103020;-69
2021/07/04 02:40:56;;;;;;;19.10;10.27;;;;;;;16.54;77.24;98457.53;125661;1094;102998;-68
2021/07/04 02:43:26;;;;;;;23.50;10.47;;;;;;;16.53;77.32;98462.05;125651;1094;103671;-69
2021/07/04 02:45:56;;;;;;;20.40;10.00;;;;;;;16.54;77.35;98462.91;125674;1095;102949;-68
2021/07/04 02:48:26;;;;;;;19.00;10.43;;;;;;;16.54;76.97;98460.22;125664;1096;103065;-68
2021/07/04 02:50:55;;;;;;;24.23;11.73;;;;;;;16.55;77.33;98468.09;125631;1095;103007;-68
2021/07/04 02:53:24;;;;;;;20.90;10.90;;;;;;;16.55;77.54;98459.22;125686;1095;102908;-68
2021/07/04 02:55:54;;;;;;;23.13;10.77;;;;;;;16.56;77.09;98460.89;125630;1095;102920;-68
2021/07/04 02:58:23;;;;;;;24.53;12.00;;;;;;;16.54;77.32;98457.53;125678;1096;102944;-69
2021/07/04 03:00:52;;;;;;;21.90;10.77;;;;;;;16.57;77.60;98455.34;125668;1095;102938;-69
2021/07/04 03:03:22;;;;;;;21.57;10.83;;;;;;;16.57;77.21;98452.66;125630;1097;102929;-68
2021/07/04 03:05:51;;;;;;;19.60;10.80;;;;;;;16.58;77.20;98456.20;125639;1093;102921;-69
2021/07/04 03:08:19;;;;;;;28.47;12.07;;;;;;;16.58;77.31;98458.88;125650;1093;102975;-69
2021/07/04 03:10:50;;;;;;;22.03;10.70;;;;;;;16.59;77.17;98457.88;125722;1093;102927;-69
2021/07/04 03:13:18;;;;;;;23.95;11.00;;;;;;;16.60;77.26;98462.25;125654;1092;102957;-69
2021/07/04 03:15:48;;;;;;;24.87;11.40;;;;;;;16.60;77.42;98455.02;125634;1092;103018;-69
2021/07/04 03:18:18;;;;;;;22.33;11.50;;;;;;;16.62;77.42;98460.23;125654;1093;103412;-69
2021/07/04 03:20:46;;;;;;;22.47;10.93;;;;;;;16.63;77.55;98469.97;125665;1092;103116;-69
2021/07/04 03:23:14;;;;;;;23.63;11.40;;;;;;;16.62;77.45;98465.61;125677;1093;103035;-69
2021/07/04 03:25:42;;;;;;;23.83;11.37;;;;;;;16.61;77.59;98466.61;125655;1093;103087;-69
2021/07/04 03:28:11;;;;;;;25.05;11.40;;;;;;;16.61;77.21;98474.66;125618;1093;103109;-68
2021/07/04 03:30:41;;;;;;;20.47;11.13;;;;;;;16.60;77.29;98468.44;125705;1093;103001;-68
2021/07/04 03:33:11;;;;;;;29.33;11.03;;;;;;;16.60;77.23;98475.67;125649;1093;103010;-68
2021/07/04 03:35:41;;;;;;;23.10;9.97;;;;;;;16.59;77.23;98482.87;125676;1092;102994;-69
2021/07/04 03:38:09;;;;;;;29.50;12.10;;;;;;;16.57;77.30;98470.63;125653;1096;102994;-68
2021/07/04 03:40:41;;;;;;;19.37;9.33;;;;;;;16.56;77.52;98477.83;125658;1092;103403;-68
2021/07/04 03:43:09;;;;;;;24.37;10.70;;;;;;;16.54;77.32;98479.83;125672;1095;102936;-68
2021/07/04 03:45:38;;;;;;;21.23;11.37;;;;;;;16.53;77.56;98480.84;125653;1093;102932;-69
2021/07/04 03:48:07;;;;;;;22.03;9.63;;;;;;;16.53;77.67;98483.52;125678;1093;102994;-69
2021/07/04 03:50:37;;;;;;;21.63;10.83;;;;;;;16.52;77.30;98485.38;125619;1094;103009;-69
2021/07/04 03:53:06;;;;;;;19.15;10.35;;;;;;;16.52;77.68;98492.58;125754;1093;103114;-69
2021/07/04 03:55:36;;;;;;;22.43;10.30;;;;;;;16.51;77.55;98489.07;125944;1093;103007;-68
2021/07/04 03:58:05;;;;;;;18.43;9.37;;;;;;;16.51;77.31;98491.75;125656;1093;102911;-68
2021/07/04 04:00:33;;;;;;;21.73;9.53;;;;;;;16.50;77.51;98495.44;125950;1092;103004;-69
2021/07/04 04:03:03;;;;;;;20.07;9.50;;;;;;;16.51;77.54;98497.13;125618;1093;103162;-68
2021/07/04 04:05:33;;;;;;;20.27;10.00;;;;;;;16.50;77.61;98494.62;125592;1093;103406;-68
2021/07/04 04:08:06;;;;;;;20.00;10.37;;;;;;;16.50;77.28;98498.13;125664;1091;102916;-69
2021/07/04 04:10:36;;;;;;;21.67;10.23;;;;;;;16.49;77.56;98496.45;125652;1093;103097;-70
2021/07/04 04:13:05;;;;;;;24.83;11.13;;;;;;;16.52;77.32;98495.27;125661;1093;103019;-69
2021/07/04 04:15:33;;;;;;;20.13;10.83;;;;;;;16.51;77.24;98494.44;125656;1092;102997;-68
2021/07/04 04:18:04;;;;;;;22.43;9.77;;;;;;;16.50;77.32;98494.62;125636;1095;103209;-68
2021/07/04 04:20:34;;;;;;;19.57;10.00;;;;;;;16.49;77.32;98496.45;125617;1093;102997;-68
2021/07/04 04:23:02;;;;;;;21.30;10.80;;;;;;;16.47;77.48;98490.40;126614;1093;102941;-68
2021/07/04 04:25:31;;;;;;;17.90;9.73;;;;;;;16.48;77.47;98492.08;125647;1093;102938;-68
2021/07/04 04:28:03;;;;;;;20.23;10.30;;;;;;;16.48;77.62;98485.89;125621;1094;103164;-69
2021/07/04 04:30:35;;;;;;;24.73;10.70;;;;;;;16.46;77.60;98490.58;125561;1092;103071;-69
2021/07/04 04:33:05;;;;;;;23.47;11.27;;;;;;;16.44;77.31;98492.59;126413;1092;102938;-68
2021/07/04 04:35:33;;;;;;;20.27;11.00;;;;;;;16.42;77.74;98491.91;125641;1092;102935;-69
2021/07/04 04:38:04;;;;;;;24.40;12.27;;;;;;;16.41;77.34;98490.22;125670;1093;103377;-68
2021/07/04 04:40:34;;;;;;;22.63;10.87;;;;;;;16.40;77.48;98488.54;125690;1093;103097;-69
2021/07/04 04:43:04;;;;;;;23.63;11.43;;;;;;;16.40;77.40;98496.59;125609;1093;103032;-68
2021/07/04 04:45:34;;;;;;;23.50;10.77;;;;;;;16.39;77.38;98497.59;125647;1094;102916;-68
2021/07/04 04:48:05;;;;;;;24.70;11.30;;;;;;;16.41;77.88;98495.59;125612;1095;102914;-68
2021/07/04 04:50:36;;;;;;;18.77;10.40;;;;;;;16.39;77.80;98498.42;125661;1095;103515;-68
2021/07/04 04:53:04;;;;;;;21.50;10.10;;;;;;;16.36;77.40;98491.55;126370;1095;102304;-68
2021/07/04 04:55:32;;;;;;;19.60;10.77;;;;;;;16.33;77.44;98504.44;125626;1096;102908;-69
2021/07/04 04:58:03;;;;;;;21.30;10.33;;;;;;;16.32;77.85;98503.61;125661;1096;102925;-70
2021/07/04 05:00:32;;;;;;;19.40;10.13;;;;;;;16.29;77.47;98501.25;125642;1095;102948;-70
2021/07/04 05:03:07;;;;;;;20.20;10.67;;;;;;;16.27;77.69;98505.11;125694;1096;103002;-71
2021/07/04 05:05:37;;;;;;;20.43;11.00;;;;;;;16.27;77.58;98502.43;125661;1093;102996;-72
2021/07/04 05:08:06;;;;;;;22.10;10.67;;;;;;;16.25;77.76;98509.80;125656;1096;103128;-70
2021/07/04 05:10:34;;;;;;;25.83;11.97;;;;;;;16.26;77.62;98508.80;125634;1092;103148;-68
2021/07/04 05:13:03;;;;;;;21.23;10.83;;;;;;;16.24;77.54;98506.26;125868;1093;103386;-73
2021/07/04 05:15:31;;;;;;;21.93;11.47;;;;;;;16.26;77.65;98511.48;125754;1092;102936;-72
2021/07/04 05:18:05;;;;;;;22.60;11.70;;;;;;;16.27;77.66;98510.48;125666;1093;103168;-71
2021/07/04 05:20:34;;;;;;;24.50;11.43;;;;;;;16.28;77.64;98510.30;125790;1093;103071;-71
2021/07/04 05:23:02;;;;;;;21.87;11.73;;;;;;;16.28;77.73;98507.62;125670;1095;102998;-72
2021/07/04 05:25:31;;;;;;;22.57;13.07;;;;;;;16.28;77.75;98509.48;125684;1093;102913;-71
2021/07/04 05:27:59;;;;;;;22.53;12.03;;;;;;;16.25;77.61;98517.84;125699;1092;102939;-72
2021/07/04 05:30:27;;;;;;;20.77;10.57;;;;;;;16.24;77.62;98516.16;125706;1093;102913;-72
2021/07/04 05:32:56;;;;;;;22.47;11.47;;;;;;;16.18;77.69;98515.80;125675;1093;103511;-70
2021/07/04 05:35:25;;;;;;;24.03;12.57;;;;;;;16.16;77.69;98519.64;125708;1092;102913;-71
2021/07/04 05:37:54;;;;;;;22.50;12.83;;;;;;;16.12;77.63;98510.22;125657;1093;102977;-71
2021/07/04 05:40:22;;;;;;;23.90;11.93;;;;;;;16.14;77.79;98518.95;125712;1093;102913;-74
2021/07/04 05:42:55;;;;;;;22.37;12.60;;;;;;;16.13;77.83;98519.95;125690;1093;103037;-72
2021/07/04 05:45:27;;;;;;;22.77;12.87;;;;;;;16.09;77.80;98526.67;125647;1095;103169;-72
2021/07/04 05:47:55;;;;;;;21.70;12.20;;;;;;;16.09;77.97;98532.04;125668;1093;102942;-72
2021/07/04 05:50:23;;;;;;;22.93;12.13;;;;;;;16.10;77.99;98534.55;125626;1095;103001;-72
2021/07/04 05:52:52;;;;;;;20.83;11.57;;;;;;;16.09;78.03;98532.86;125693;1093;102983;-72
2021/07/04 05:55:22;;;;;;;23.33;11.60;;;;;;;16.10;78.02;98539.91;125690;1093;102913;-71
2021/07/04 05:57:52;;;;;;;20.03;10.53;;;;;;;16.12;78.12;98545.10;125614;1092;103027;-72
2021/07/04 06:00:20;;;;;;;19.90;10.43;;;;;;;16.10;78.05;98549.81;125700;1093;103128;-71
2021/07/04 06:02:49;;;;;;;20.30;9.60;;;;;;;16.10;77.72;98544.45;125621;1093;102906;-72
2021/07/04 06:05:17;;;;;;;19.45;9.40;;;;;;;16.10;77.75;98547.95;125687;1093;102934;-72
2021/07/04 06:07:47;;;;;;;17.50;9.00;;;;;;;16.09;77.87;98548.13;125663;1093;103034;-70
2021/07/04 06:10:16;;;;;;;14.83;7.57;;;;;;;16.07;78.02;98545.59;125652;1091;103100;-70
2021/07/04 06:12:46;;;;;;;16.80;8.43;;;;;;;16.05;78.00;98548.45;125692;1095;103031;-72
2021/07/04 06:15:18;;;;;;;17.57;8.43;;;;;;;16.07;77.95;98550.95;125637;1095;102955;-73
2021/07/04 06:17:47;;;;;;;16.10;8.07;;;;;;;16.07;78.03;98548.27;125679;1093;102942;-73
2021/07/04 06:20:20;;;;;;;18.07;8.60;;;;;;;16.09;77.81;98553.50;125699;1093;103006;-72
2021/07/04 06:22:54;;;;;;;15.07;8.03;;;;;;;16.09;77.86;98553.50;125676;1092;103179;-72
2021/07/04 06:25:24;;;;;;;18.30;8.57;;;;;;;16.08;78.02;98541.91;125651;1094;102941;-71
2021/07/04 06:27:52;;;;;;;17.43;8.47;;;;;;;16.07;77.90;98546.45;125621;1092;103058;-71
2021/07/04 06:30:21;;;;;;;18.17;9.27;;;;;;;16.09;78.48;98546.27;125714;1093;102910;-72
2021/07/04 06:32:51;;;;;;;19.07;9.33;;;;;;;16.11;77.99;98551.47;125676;1093;102934;-72
2021/07/04 06:35:19;;;;;;;16.70;9.07;;;;;;;16.13;78.00;98558.38;125663;1093;103021;-71
2021/07/04 06:37:47;;;;;;;21.17;11.10;;;;;;;16.16;78.04;98551.83;125696;1093;103125;-72
2021/07/04 06:40:16;;;;;;;18.73;9.27;;;;;;;16.19;77.87;98552.37;125692;1093;102925;-72
2021/07/04 06:42:44;;;;;;;18.77;9.80;;;;;;;16.20;78.02;98554.05;125734;1092;103010;-72
2021/07/04 06:45:17;;;;;;;17.37;9.80;;;;;;;16.22;78.00;98560.10;125695;1093;102909;-73
2021/07/04 06:47:49;;;;;;;19.30;9.67;;;;;;;16.24;77.91;98557.24;125664;1093;103002;-74
2021/07/04 06:50:20;;;;;;;21.33;9.87;;;;;;;16.25;77.59;98558.92;125755;1094;103019;-71
2021/07/04 06:52:50;;;;;;;20.43;9.33;;;;;;;16.27;78.13;98561.47;125662;1093;103029;-73
2021/07/04 06:55:20;;;;;;;17.57;9.13;;;;;;;16.25;78.04;98553.56;125657;1093;102948;-73
2021/07/04 06:57:50;;;;;;;20.97;10.30;;;;;;;16.24;78.08;98557.24;125703;1093;103178;-74
2021/07/04 07:00:20;;;;;;;21.17;10.10;;;;;;;16.23;77.94;98560.92;125633;1091;103010;-78
2021/07/04 07:02:49;;;;;;;20.37;10.90;;;;;;;16.24;77.86;98554.56;125650;1093;103065;-76
2021/07/04 07:05:19;;;;;;;19.20;9.80;;;;;;;16.25;78.12;98560.78;126174;1093;103566;-75
2021/07/04 07:07:48;;;;;;;20.15;10.75;;;;;;;16.26;77.91;98559.78;125671;1093;102938;-77
2021/07/04 07:10:16;;;;;;;21.13;10.97;;;;;;;16.29;77.99;98560.28;125686;1093;103014;-74
2021/07/04 07:12:47;;;;;;;20.55;10.30;;;;;;;16.30;77.82;98555.78;125689;1093;103008;-72
2021/07/04 07:15:18;;;;;;;20.38;10.48;;;;;;;16.27;77.79;98556.09;125688;1093;102944;-73
2021/07/04 07:17:46;;;;;;;22.27;10.73;;;;;;;16.28;77.90;98549.73;125683;1093;103010;-71
2021/07/04 07:20:17;;;;;;;17.80;9.60;;;;;;;16.30;78.17;98547.73;125699;1093;102948;-71
2021/07/04 07:22:47;;;;;;;20.20;9.87;;;;;;;16.29;78.09;98541.50;125663;1093;103009;-71
2021/07/04 07:25:19;;;;;;;21.77;9.47;;;;;;;16.29;77.85;98546.05;125678;1093;103028;-71
2021/07/04 07:27:47;;;;;;;19.13;9.27;;;;;;;16.31;77.98;98546.69;125674;1093;102945;-73
2021/07/04 07:30:18;;;;;;;17.53;9.47;;;;;;;16.32;77.89;98533.13;125690;1093;103007;-73
2021/07/04 07:32:47;;;;;;;17.45;8.95;;;;;;;16.32;78.14;98538.50;125714;1093;102995;-74
2021/07/04 07:35:18;;;;;;;16.50;7.70;;;;;;;16.32;78.08;98546.55;125681;1092;103058;-75
2021/07/04 07:37:50;;;;;;;17.80;8.53;;;;;;;16.33;78.11;98539.33;125704;1093;103019;-72
2021/07/04 07:40:20;;;;;;;17.87;8.83;;;;;;;16.35;78.05;98538.17;125692;1093;102940;-74
2021/07/04 07:42:48;;;;;;;17.33;8.53;;;;;;;16.39;78.11;98545.91;125686;1093;103042;-73
2021/07/04 07:45:19;;;;;;;19.63;9.03;;;;;;;16.40;78.20;98534.17;126701;1092;103004;-73
2021/07/04 07:47:48;;;;;;;19.50;9.37;;;;;;;16.42;77.95;98545.59;125687;1093;102934;-75
2021/07/04 07:50:16;;;;;;;19.63;9.17;;;;;;;16.42;78.16;98543.73;125645;1092;102933;-74
2021/07/04 07:52:44;;;;;;;15.87;8.40;;;;;;;16.42;78.36;98548.27;125676;1093;102910;-73
2021/07/04 07:55:15;;;;;;;18.77;8.93;;;;;;;16.42;78.15;98549.09;125671;1093;102913;-72
2021/07/04 07:57:44;;;;;;;17.57;8.23;;;;;;;16.41;78.01;98555.47;125717;1093;102935;-70
2021/07/04 08:00:15;;;;;;;19.73;8.43;;;;;;;16.43;77.79;98553.46;125658;1092;102975;-72
2021/07/04 08:02:43;;;;;;;17.87;8.20;;;;;;;16.44;78.15;98548.95;125690;1093;103002;-71
2021/07/04 08:05:14;;;;;;;15.65;7.85;;;;;;;16.45;77.82;98554.14;125681;1093;103152;-75
2021/07/04 08:07:42;;;;;;;17.17;7.83;;;;;;;16.46;78.17;98555.00;125682;1093;103070;-77
2021/07/04 08:10:13;;;;;;;16.63;8.20;;;;;;;16.46;77.84;98558.51;125699;1092;102937;-78
2021/07/04 08:12:45;;;;;;;15.60;7.90;;;;;;;16.47;77.91;98548.63;125702;1093;103035;-77
2021/07/04 08:15:14;;;;;;;17.33;8.93;;;;;;;16.47;78.09;98548.63;125646;1093;103367;-75
2021/07/04 08:17:44;;;;;;;18.40;9.05;;;;;;;16.50;77.89;98554.50;125693;1092;102993;-79
2021/07/04 08:20:16;;;;;;;19.83;9.30;;;;;;;16.54;78.21;98556.86;125657;1093;103009;-77
2021/07/04 08:22:47;;;;;;;20.33;9.73;;;;;;;16.55;78.20;98556.69;125785;1093;102910;-72
2021/07/04 08:25:17;;;;;;;19.20;8.73;;;;;;;16.60;78.07;98561.59;125732;1093;102913;-74
2021/07/04 08:27:48;;;;;;;17.60;8.05;;;;;;;16.63;77.93;98558.58;125619;1093;102999;-72
2021/07/04 08:30:17;;;;;;;18.45;9.15;;;;;;;16.66;78.15;98560.94;125702;1093;102935;-72
2021/07/04 08:32:45;;;;;;;18.87;8.63;;;;;;;16.61;77.73;98560.58;125644;1093;103084;-72
2021/07/04 08:35:14;;;;;;;20.93;10.27;;;;;;;16.59;77.82;98562.59;125710;1093;102930;-71
2021/07/04 08:37:43;;;;;;;20.07;10.23;;;;;;;16.61;78.10;98563.27;125711;1092;103019;-71
2021/07/04 08:40:15;;;;;;;21.60;9.37;;;;;;;16.61;77.81;98564.09;125661;1093;103068;-72
2021/07/04 08:42:45;;;;;;;22.87;10.33;;;;;;;16.63;78.23;98566.63;125670;1093;103065;-70
2021/07/04 08:45:15;;;;;;;20.10;9.73;;;;;;;16.64;78.01;98569.14;125729;1092;102994;-70
2021/07/04 08:47:43;;;;;;;21.00;9.83;;;;;;;16.64;77.79;98573.69;125720;1092;103015;-70
2021/07/04 08:50:15;;;;;;;21.90;10.07;;;;;;;16.60;77.90;98566.95;125714;1093;103012;-68
2021/07/04 08:52:45;;;;;;;19.80;10.90;;;;;;;16.62;77.83;98581.06;125635;1093;102912;-68
2021/07/04 08:55:16;;;;;;;18.03;9.50;;;;;;;16.62;77.81;98576.52;125652;1092;102916;-68
2021/07/04 08:57:46;;;;;;;19.93;10.53;;;;;;;16.62;77.96;98571.14;125680;1093;103062;-70
2021/07/04 09:00:17;;;;;;;18.17;9.40;;;;;;;16.69;78.04;98571.36;125668;1092;102992;-68
2021/07/04 09:02:45;;;;;;;20.33;9.70;;;;;;;16.73;78.44;98567.31;125733;1093;103073;-69
2021/07/04 09:05:14;;;;;;;20.97;9.97;;;;;;;16.79;78.41;98563.14;125732;1093;103467;-70
2021/07/04 09:07:48;;;;;;;21.87;11.67;;;;;;;16.89;78.31;98557.63;125612;1093;103006;-72
2021/07/04 09:10:22;;;;;;;21.73;11.00;;;;;;;16.98;77.97;98553.98;125666;1091;102998;-68
2021/07/04 09:12:55;;;;;;;16.97;8.00;;;;;;;17.05;78.19;98555.00;125684;1093;102933;-69
2021/07/04 09:15:31;;;;;;;19.25;9.70;;;;;;;17.06;78.26;98548.63;125611;1092;102939;-70
2021/07/04 09:18:01;;;;;;;20.93;10.20;;;;;;;17.10;78.23;98547.29;125590;1093;103058;-77
2021/07/04 09:20:29;;;;;;;20.40;9.87;;;;;;;17.19;77.86;98552.64;125701;1092;103010;-73
2021/07/04 09:23:02;;;;;;;20.50;10.10;;;;;;;17.25;77.67;98555.53;125666;1093;102920;-74
2021/07/04 09:25:38;;;;;;;19.68;9.73;;;;;;;17.34;78.13;98550.13;125690;1093;103137;-71
2021/07/04 09:28:15;;;;;;;20.40;9.60;;;;;;;17.43;77.61;98541.05;125636;1093;102994;-75
2021/07/04 09:30:57;;;;;;;20.47;10.00;;;;;;;17.47;77.77;98542.41;125706;1093;103096;-74
2021/07/04 09:33:35;;;;;;;17.90;8.97;;;;;;;17.54;78.22;98538.03;125582;1093;102988;-70
2021/07/04 09:36:07;;;;;;;19.90;10.17;;;;;;;17.63;78.12;98546.09;125585;1093;103393;-72
2021/07/04 09:38:44;;;;;;;18.40;9.50;;;;;;;17.74;78.01;98545.72;125534;1092;102906;-69
2021/07/04 09:41:14;;;;;;;19.30;9.40;;;;;;;17.83;78.10;98536.63;125619;1092;102937;-68
2021/07/04 09:43:43;;;;;;;18.37;10.13;;;;;;;17.93;77.80;98535.61;125568;1093;103005;-67
2021/07/04 09:46:15;;;;;;;18.80;10.00;;;;;;;17.96;78.14;98529.88;125596;1093;102991;-66
2021/07/04 09:48:47;;;;;;;19.13;9.67;;;;;;;17.98;77.66;98542.14;125567;1093;103073;-66
2021/07/04 09:51:26;;;;;;;23.10;10.90;;;;;;;18.05;78.13;98539.65;125547;1092;102992;-66
2021/07/04 09:54:01;;;;;;;19.07;9.90;;;;;;;18.11;78.21;98530.03;125585;1092;103254;-67
2021/07/04 09:56:35;;;;;;;21.10;10.93;;;;;;;18.20;78.08;98530.83;125545;1093;103025;-68
2021/07/04 09:59:06;;;;;;;21.20;10.60;;;;;;;18.27;77.72;98526.44;125656;1092;103088;-69
2021/07/04 10:01:35;;;;;;;18.53;10.10;;;;;;;18.37;78.09;98531.60;125613;1093;103411;-68
2021/07/04 10:04:30;;;;;;;20.80;10.93;;;;;;;18.38;77.95;98535.97;125558;1093;103035;-68
2021/07/04 10:07:00;;;;;;;22.33;11.40;;;;;;;18.43;77.94;98533.59;125575;1093;103029;-68
2021/07/04 10:09:32;;;;;;;22.03;11.07;;;;;;;18.45;77.69;98524.34;125585;1093;103035;-68
2021/07/04 10:12:03;;;;;;;21.23;11.03;;;;;;;18.45;77.45;98523.49;125579;1093;102915;-68
2021/07/04 10:14:31;;;;;;;21.47;11.17;;;;;;;18.45;77.48;98520.80;125581;1091;103061;-68
2021/07/04 10:17:04;;;;;;;19.80;10.10;;;;;;;18.48;77.59;98516.94;125643;1092;102994;-69
2021/07/04 10:19:36;;;;;;;21.90;11.65;;;;;;;18.49;77.46;98511.36;125648;1092;103489;-66
2021/07/04 10:22:09;;;;;;;20.90;11.00;;;;;;;18.50;77.51;98518.42;125565;1093;103218;-66
2021/07/04 10:24:41;;;;;;;21.33;11.90;;;;;;;18.55;77.88;98512.49;125659;1093;102916;-70
2021/07/04 10:27:12;;;;;;;24.87;11.50;;;;;;;18.60;77.75;98508.27;125647;1093;102993;-69
2021/07/04 10:29:43;;;;;;;20.07;11.60;;;;;;;18.68;77.53;98509.25;125643;1093;103031;-70
2021/07/04 10:32:15;;;;;;;22.17;12.43;;;;;;;18.73;77.55;98502.30;125602;1093;102913;-69
2021/07/04 10:34:46;;;;;;;;;;;;;;;18.80;77.93;98498.89;125614;1093;102905;-67
2021/07/04 10:37:32;;;;;;;21.80;11.10;;;;;;;18.88;77.85;98496.97;125639;1092;102937;-68
2021/07/04 10:40:17;;;;;;;21.37;10.90;;;;;;;18.97;77.72;98499.64;125610;1092;102930;-68
2021/07/04 10:42:46;;;;;;;23.93;12.30;;;;;;;19.03;77.38;98491.67;125606;1093;102942;-67
2021/07/04 10:45:36;;;;;;;24.57;11.97;;;;;;;19.07;77.59;98500.25;125628;1092;102994;-66
2021/07/04 10:48:29;;;;;;;22.77;12.33;;;;;;;19.07;77.51;98499.39;125653;1093;103934;-66
2021/07/04 10:51:16;;;;;;;23.97;13.10;;;;;;;19.14;77.71;98501.20;125661;1093;103160;-66
2021/07/04 10:53:58;;;;;;;23.67;12.83;;;;;;;19.20;77.59;98499.63;125613;1093;102919;-66
2021/07/04 10:56:36;;;;;;;23.00;13.63;;;;;;;19.18;77.48;98498.97;125639;1093;103001;-66
2021/07/04 10:59:17;;;;;;;21.63;12.63;;;;;;;19.18;77.37;98493.59;125649;1092;103031;-66
2021/07/04 11:01:49;;;;;;;22.97;12.43;;;;;;;19.19;77.19;98490.69;125695;1093;102975;-67
2021/07/04 11:04:51;;;;;;;20.77;12.23;;;;;;;19.26;77.44;98489.97;125609;1092;103020;-67
2021/07/04 11:07:22;;;;;;;21.97;13.33;;;;;;;19.34;77.52;98501.55;125606;1092;103059;-68
2021/07/04 11:09:55;;;;;;;24.30;12.80;;;;;;;19.40;77.37;98497.27;125569;1093;103003;-67
2021/07/04 11:12:42;;;;;;;26.27;14.17;;;;;;;19.43;77.45;98491.51;125584;1093;102983;-67
2021/07/04 11:15:13;;;;;;;23.50;13.93;;;;;;;19.48;77.31;98490.95;125562;1093;102940;-67
2021/07/04 11:17:57;;;;;;;24.67;14.50;;;;;;;19.49;77.38;98488.09;125531;1093;102945;-66
2021/07/04 11:20:38;;;;;;;26.07;15.20;;;;;;;19.54;77.40;98486.70;125499;1093;102913;-67